AAL1129 KCLT-KBHM
Flight info
| Callsign | AAL1129 |
|---|---|
| Flight time | N/A |
| Altitude | 32000 |
| Route | ESTRR5 IPTAY CHOPZ THRSR KIOSK |
| Aircraft | B738/M-SDE2E3FGHIRWXY/LB1 |
Departure
| Time | 2026-05-05 19:09 |
|---|---|
| Airport | Charlotte Douglas International Airport (KCLT) |
Arrival
| Time | N/A |
|---|---|
| Airport | Birmingham-Shuttlesworth International Airport (KBHM) |
| Time | Latitude | Longitude | Altitude | Speed | Heading |
|---|---|---|---|---|---|
| 2026-05-05 18:39 | 35.22460 | -80.94003 | 733 ft | 0 kts | 270° |
| 2026-05-05 18:51 | 35.22460 | -80.94002 | 733 ft | 0 kts | 271° |
| 2026-05-05 18:52 | 35.22460 | -80.94003 | 733 ft | 0 kts | 271° |
| 2026-05-05 18:57 | 35.22460 | -80.94000 | 733 ft | 2 kts | 269° |
| 2026-05-05 18:57 | 35.22454 | -80.93989 | 734 ft | 1 kts | 338° |
| 2026-05-05 18:58 | 35.22440 | -80.93988 | 734 ft | 2 kts | 8° |
| 2026-05-05 18:58 | 35.22425 | -80.93989 | 734 ft | 2 kts | 358° |
| 2026-05-05 18:58 | 35.22411 | -80.93989 | 734 ft | 2 kts | 2° |
| 2026-05-05 18:58 | 35.22403 | -80.93989 | 734 ft | 0 kts | 0° |
| 2026-05-05 19:01 | 35.22414 | -80.93980 | 734 ft | 2 kts | 43° |
| 2026-05-05 19:01 | 35.22429 | -80.93964 | 734 ft | 0 kts | 17° |
| 2026-05-05 19:02 | 35.22444 | -80.93958 | 734 ft | 0 kts | 20° |
| 2026-05-05 19:03 | 35.22446 | -80.93957 | 734 ft | 0 kts | 20° |
| 2026-05-05 19:05 | 35.22462 | -80.93948 | 734 ft | 3 kts | 30° |
| 2026-05-05 19:05 | 35.22483 | -80.93922 | 735 ft | 7 kts | 59° |
| 2026-05-05 19:05 | 35.22494 | -80.93861 | 736 ft | 7 kts | 82° |
| 2026-05-05 19:05 | 35.22498 | -80.93819 | 737 ft | 4 kts | 86° |
| 2026-05-05 19:06 | 35.22500 | -80.93779 | 738 ft | 4 kts | 84° |
| 2026-05-05 19:06 | 35.22503 | -80.93755 | 738 ft | 0 kts | 83° |
| 2026-05-05 19:07 | 35.22503 | -80.93754 | 738 ft | 0 kts | 83° |
| 2026-05-05 19:07 | 35.22507 | -80.93708 | 739 ft | 9 kts | 84° |
| 2026-05-05 19:08 | 35.22488 | -80.93638 | 740 ft | 9 kts | 142° |
| 2026-05-05 19:08 | 35.22354 | -80.93607 | 740 ft | 50 kts | 176° |
| 2026-05-05 19:08 | 35.21602 | -80.93542 | 736 ft | 161 kts | 176° |
| 2026-05-05 19:08 | 35.20339 | -80.93407 | 1341 ft | 199 kts | 173° |
| 2026-05-05 19:09 | 35.18889 | -80.93196 | 2374 ft | 212 kts | 172° |
| 2026-05-05 19:09 | 35.17353 | -80.92998 | 3325 ft | 235 kts | 174° |
| 2026-05-05 19:09 | 35.15699 | -80.92820 | 4401 ft | 251 kts | 174° |
| 2026-05-05 19:09 | 35.13907 | -80.92630 | 5502 ft | 264 kts | 174° |
| 2026-05-05 19:10 | 35.12086 | -80.92488 | 6717 ft | 269 kts | 181° |
| 2026-05-05 19:10 | 35.10326 | -80.93130 | 8184 ft | 270 kts | 212° |
| 2026-05-05 19:10 | 35.09047 | -80.94725 | 9460 ft | 277 kts | 238° |
| 2026-05-05 19:10 | 35.08398 | -80.96945 | 10616 ft | 289 kts | 257° |
| 2026-05-05 19:11 | 35.08080 | -80.99438 | 11600 ft | 306 kts | 261° |